sensor_id;sensor_type;location;lat;lon;timestamp;temperature;humidity
8412;HTU21D;4243;49.296;11.348;2022-08-02T00:00:38;15.52;118.99
8412;HTU21D;4243;49.296;11.348;2022-08-02T00:03:05;15.53;118.99
8412;HTU21D;4243;49.296;11.348;2022-08-02T00:03:05;15.40;99.90
8412;HTU21D;4243;49.296;11.348;2022-08-02T00:05:32;15.40;118.99
8412;HTU21D;4243;49.296;11.348;2022-08-02T00:08:00;15.33;118.99
8412;HTU21D;4243;49.296;11.348;2022-08-02T00:10:27;15.30;118.99
8412;HTU21D;4243;49.296;11.348;2022-08-02T00:12:56;15.27;118.99
8412;HTU21D;4243;49.296;11.348;2022-08-02T00:15:24;15.31;118.99
8412;HTU21D;4243;49.296;11.348;2022-08-02T00:17:52;15.34;118.99
8412;HTU21D;4243;49.296;11.348;2022-08-02T00:20:20;15.30;118.99
8412;HTU21D;4243;49.296;11.348;2022-08-02T00:22:47;15.26;118.99
8412;HTU21D;4243;49.296;11.348;2022-08-02T00:25:15;15.24;118.99
8412;HTU21D;4243;49.296;11.348;2022-08-02T00:27:42;15.27;118.99
8412;HTU21D;4243;49.296;11.348;2022-08-02T00:30:10;15.28;118.99
8412;HTU21D;4243;49.296;11.348;2022-08-02T00:32:39;15.26;118.99
8412;HTU21D;4243;49.296;11.348;2022-08-02T00:35:07;15.60;1.00
8412;HTU21D;4243;49.296;11.348;2022-08-02T00:35:07;15.30;118.99
8412;HTU21D;4243;49.296;11.348;2022-08-02T00:37:38;15.60;1.00
8412;HTU21D;4243;49.296;11.348;2022-08-02T00:37:39;15.28;118.99
8412;HTU21D;4243;49.296;11.348;2022-08-02T00:40:08;15.27;118.99
8412;HTU21D;4243;49.296;11.348;2022-08-02T00:42:37;15.29;118.99
8412;HTU21D;4243;49.296;11.348;2022-08-02T00:45:06;15.37;118.99
8412;HTU21D;4243;49.296;11.348;2022-08-02T00:47:33;15.80;1.00
8412;HTU21D;4243;49.296;11.348;2022-08-02T00:47:33;15.41;118.99
8412;HTU21D;4243;49.296;11.348;2022-08-02T00:50:01;15.43;118.99
8412;HTU21D;4243;49.296;11.348;2022-08-02T00:52:29;15.43;118.99
8412;HTU21D;4243;49.296;11.348;2022-08-02T00:54:57;15.45;118.99
8412;HTU21D;4243;49.296;11.348;2022-08-02T00:57:24;15.44;118.99
8412;HTU21D;4243;49.296;11.348;2022-08-02T00:59:52;15.43;118.99
8412;HTU21D;4243;49.296;11.348;2022-08-02T01:02:18;15.70;1.00
8412;HTU21D;4243;49.296;11.348;2022-08-02T01:02:19;15.48;118.99
8412;HTU21D;4243;49.296;11.348;2022-08-02T01:04:46;15.47;118.99
8412;HTU21D;4243;49.296;11.348;2022-08-02T01:07:14;15.40;118.99
8412;HTU21D;4243;49.296;11.348;2022-08-02T01:09:43;15.34;118.99
8412;HTU21D;4243;49.296;11.348;2022-08-02T01:12:11;15.40;1.00
8412;HTU21D;4243;49.296;11.348;2022-08-02T01:12:11;15.28;118.99
8412;HTU21D;4243;49.296;11.348;2022-08-02T01:14:42;15.25;118.99
8412;HTU21D;4243;49.296;11.348;2022-08-02T01:17:15;15.19;118.99
8412;HTU21D;4243;49.296;11.348;2022-08-02T01:20:21;15.12;118.99
8412;HTU21D;4243;49.296;11.348;2022-08-02T01:23:44;15.04;118.99
8412;HTU21D;4243;49.296;11.348;2022-08-02T01:29:31;14.89;118.99
8412;HTU21D;4243;49.296;11.348;2022-08-02T01:32:11;14.70;99.90
8412;HTU21D;4243;49.296;11.348;2022-08-02T01:32:13;14.83;118.99
8412;HTU21D;4243;49.296;11.348;2022-08-02T01:35:06;14.81;118.99
8412;HTU21D;4243;49.296;11.348;2022-08-02T01:38:06;14.77;118.99
8412;HTU21D;4243;49.296;11.348;2022-08-02T01:40:39;14.63;118.99
8412;HTU21D;4243;49.296;11.348;2022-08-02T01:43:09;14.56;118.99
8412;HTU21D;4243;49.296;11.348;2022-08-02T01:45:40;14.70;99.90
8412;HTU21D;4243;49.296;11.348;2022-08-02T01:45:41;14.57;118.99
8412;HTU21D;4243;49.296;11.348;2022-08-02T01:48:11;14.70;99.90
8412;HTU21D;4243;49.296;11.348;2022-08-02T01:48:12;14.56;118.99
8412;HTU21D;4243;49.296;11.348;2022-08-02T01:50:41;14.55;118.99
8412;HTU21D;4243;49.296;11.348;2022-08-02T01:50:41;14.80;99.90
8412;HTU21D;4243;49.296;11.348;2022-08-02T01:53:11;14.56;118.99
8412;HTU21D;4243;49.296;11.348;2022-08-02T01:55:44;14.80;99.90
8412;HTU21D;4243;49.296;11.348;2022-08-02T01:55:46;14.58;118.99
8412;HTU21D;4243;49.296;11.348;2022-08-02T01:58:31;14.58;118.99
8412;HTU21D;4243;49.296;11.348;2022-08-02T02:01:01;14.80;1.00
8412;HTU21D;4243;49.296;11.348;2022-08-02T02:01:03;14.64;118.99
8412;HTU21D;4243;49.296;11.348;2022-08-02T02:03:33;14.80;99.90
8412;HTU21D;4243;49.296;11.348;2022-08-02T02:03:34;14.63;118.99
8412;HTU21D;4243;49.296;11.348;2022-08-02T02:06:09;14.60;99.90
8412;HTU21D;4243;49.296;11.348;2022-08-02T02:06:10;14.56;118.99
8412;HTU21D;4243;49.296;11.348;2022-08-02T02:08:39;14.52;118.99
8412;HTU21D;4243;49.296;11.348;2022-08-02T02:11:08;14.40;99.90
8412;HTU21D;4243;49.296;11.348;2022-08-02T02:11:08;14.44;118.99
8412;HTU21D;4243;49.296;11.348;2022-08-02T02:14:01;14.30;99.90
8412;HTU21D;4243;49.296;11.348;2022-08-02T02:14:01;14.38;118.99
8412;HTU21D;4243;49.296;11.348;2022-08-02T02:16:31;14.33;118.99
8412;HTU21D;4243;49.296;11.348;2022-08-02T02:19:01;14.26;118.99
8412;HTU21D;4243;49.296;11.348;2022-08-02T02:21:29;14.25;118.99
8412;HTU21D;4243;49.296;11.348;2022-08-02T02:23:57;14.50;1.00
8412;HTU21D;4243;49.296;11.348;2022-08-02T02:23:58;14.24;118.99
8412;HTU21D;4243;49.296;11.348;2022-08-02T02:26:26;14.50;1.00
8412;HTU21D;4243;49.296;11.348;2022-08-02T02:26:27;14.26;118.99
8412;HTU21D;4243;49.296;11.348;2022-08-02T02:29:01;14.50;1.00
8412;HTU21D;4243;49.296;11.348;2022-08-02T02:29:02;14.26;118.99
8412;HTU21D;4243;49.296;11.348;2022-08-02T02:31:38;14.26;118.99
8412;HTU21D;4243;49.296;11.348;2022-08-02T02:34:16;14.27;118.99
8412;HTU21D;4243;49.296;11.348;2022-08-02T02:36:49;14.40;1.00
8412;HTU21D;4243;49.296;11.348;2022-08-02T02:36:50;14.24;118.99
8412;HTU21D;4243;49.296;11.348;2022-08-02T02:39:21;14.11;118.99
8412;HTU21D;4243;49.296;11.348;2022-08-02T02:41:48;14.10;1.00
8412;HTU21D;4243;49.296;11.348;2022-08-02T02:41:50;14.09;118.99
8412;HTU21D;4243;49.296;11.348;2022-08-02T02:44:19;14.03;118.99
8412;HTU21D;4243;49.296;11.348;2022-08-02T02:44:19;14.00;1.00
8412;HTU21D;4243;49.296;11.348;2022-08-02T02:46:49;13.90;1.00
8412;HTU21D;4243;49.296;11.348;2022-08-02T02:46:51;13.96;118.99
8412;HTU21D;4243;49.296;11.348;2022-08-02T02:49:20;13.80;1.00
8412;HTU21D;4243;49.296;11.348;2022-08-02T02:49:22;13.91;118.99
8412;HTU21D;4243;49.296;11.348;2022-08-02T02:51:50;13.83;118.99
8412;HTU21D;4243;49.296;11.348;2022-08-02T02:54:19;13.75;118.99
8412;HTU21D;4243;49.296;11.348;2022-08-02T02:57:01;13.65;118.99
8412;HTU21D;4243;49.296;11.348;2022-08-02T02:59:30;13.62;118.99
8412;HTU21D;4243;49.296;11.348;2022-08-02T03:01:58;13.70;1.00
8412;HTU21D;4243;49.296;11.348;2022-08-02T03:01:59;13.59;118.99
8412;HTU21D;4243;49.296;11.348;2022-08-02T03:04:27;13.59;118.99
8412;HTU21D;4243;49.296;11.348;2022-08-02T03:07:15;13.61;118.99
8412;HTU21D;4243;49.296;11.348;2022-08-02T03:09:43;13.64;118.99
8412;HTU21D;4243;49.296;11.348;2022-08-02T03:12:13;13.61;118.99
8412;HTU21D;4243;49.296;11.348;2022-08-02T03:14:46;13.67;118.99
8412;HTU21D;4243;49.296;11.348;2022-08-02T03:17:15;13.78;118.99
8412;HTU21D;4243;49.296;11.348;2022-08-02T03:17:15;14.00;99.90
8412;HTU21D;4243;49.296;11.348;2022-08-02T03:19:43;13.91;118.99
8412;HTU21D;4243;49.296;11.348;2022-08-02T03:22:11;13.83;118.99
8412;HTU21D;4243;49.296;11.348;2022-08-02T03:24:39;13.75;118.99
8412;HTU21D;4243;49.296;11.348;2022-08-02T03:27:07;13.69;118.99
8412;HTU21D;4243;49.296;11.348;2022-08-02T03:29:34;13.68;118.99
8412;HTU21D;4243;49.296;11.348;2022-08-02T03:32:02;13.69;118.99
8412;HTU21D;4243;49.296;11.348;2022-08-02T03:34:29;13.90;1.00
8412;HTU21D;4243;49.296;11.348;2022-08-02T03:34:30;13.73;118.99
8412;HTU21D;4243;49.296;11.348;2022-08-02T03:36:58;13.75;118.99
8412;HTU21D;4243;49.296;11.348;2022-08-02T03:39:26;13.78;118.99
8412;HTU21D;4243;49.296;11.348;2022-08-02T03:41:54;13.78;118.99
8412;HTU21D;4243;49.296;11.348;2022-08-02T03:44:22;13.77;118.99
8412;HTU21D;4243;49.296;11.348;2022-08-02T03:46:51;13.78;118.99
8412;HTU21D;4243;49.296;11.348;2022-08-02T03:49:20;13.78;118.99
8412;HTU21D;4243;49.296;11.348;2022-08-02T03:51:48;13.75;118.99
8412;HTU21D;4243;49.296;11.348;2022-08-02T03:54:17;13.71;118.99
8412;HTU21D;4243;49.296;11.348;2022-08-02T03:56:45;13.70;118.99
8412;HTU21D;4243;49.296;11.348;2022-08-02T03:59:13;13.70;118.99
8412;HTU21D;4243;49.296;11.348;2022-08-02T03:59:13;13.90;1.00
8412;HTU21D;4243;49.296;11.348;2022-08-02T04:01:41;13.75;118.99
8412;HTU21D;4243;49.296;11.348;2022-08-02T04:04:08;13.90;1.00
8412;HTU21D;4243;49.296;11.348;2022-08-02T04:04:09;13.80;118.99
8412;HTU21D;4243;49.296;11.348;2022-08-02T04:06:36;13.88;118.99
8412;HTU21D;4243;49.296;11.348;2022-08-02T04:06:36;14.00;56.20
8412;HTU21D;4243;49.296;11.348;2022-08-02T04:09:08;13.91;118.99
8412;HTU21D;4243;49.296;11.348;2022-08-02T04:11:35;13.95;118.99
8412;HTU21D;4243;49.296;11.348;2022-08-02T04:14:10;13.90;118.99
8412;HTU21D;4243;49.296;11.348;2022-08-02T04:16:45;13.93;118.99
8412;HTU21D;4243;49.296;11.348;2022-08-02T04:19:26;13.95;118.99
8412;HTU21D;4243;49.296;11.348;2022-08-02T04:21:54;14.20;99.90
8412;HTU21D;4243;49.296;11.348;2022-08-02T04:21:57;13.96;118.99
8412;HTU21D;4243;49.296;11.348;2022-08-02T04:24:28;13.95;118.99
8412;HTU21D;4243;49.296;11.348;2022-08-02T04:26:59;13.95;118.99
8412;HTU21D;4243;49.296;11.348;2022-08-02T04:29:41;13.99;118.99
8412;HTU21D;4243;49.296;11.348;2022-08-02T04:29:41;14.10;99.90
8412;HTU21D;4243;49.296;11.348;2022-08-02T04:32:14;14.01;118.99
8412;HTU21D;4243;49.296;11.348;2022-08-02T04:34:46;14.06;118.99
8412;HTU21D;4243;49.296;11.348;2022-08-02T04:34:46;14.20;99.90
8412;HTU21D;4243;49.296;11.348;2022-08-02T04:37:36;14.10;118.99
8412;HTU21D;4243;49.296;11.348;2022-08-02T04:40:10;14.30;99.90
8412;HTU21D;4243;49.296;11.348;2022-08-02T04:40:11;14.13;118.99
8412;HTU21D;4243;49.296;11.348;2022-08-02T04:42:40;14.19;118.99
8412;HTU21D;4243;49.296;11.348;2022-08-02T04:45:08;14.50;99.90
8412;HTU21D;4243;49.296;11.348;2022-08-02T04:45:09;14.25;118.99
8412;HTU21D;4243;49.296;11.348;2022-08-02T04:47:42;14.29;118.99
8412;HTU21D;4243;49.296;11.348;2022-08-02T04:50:30;14.43;118.99
8412;HTU21D;4243;49.296;11.348;2022-08-02T04:52:57;14.50;118.99
8412;HTU21D;4243;49.296;11.348;2022-08-02T04:55:25;14.59;118.99
8412;HTU21D;4243;49.296;11.348;2022-08-02T04:57:56;14.71;118.99
8412;HTU21D;4243;49.296;11.348;2022-08-02T05:00:25;14.87;118.99
8412;HTU21D;4243;49.296;11.348;2022-08-02T05:02:55;14.98;118.99
8412;HTU21D;4243;49.296;11.348;2022-08-02T05:05:23;15.12;118.99
8412;HTU21D;4243;49.296;11.348;2022-08-02T05:07:51;15.29;118.99
8412;HTU21D;4243;49.296;11.348;2022-08-02T05:10:18;16.10;1.00
8412;HTU21D;4243;49.296;11.348;2022-08-02T05:10:19;15.43;118.99
8412;HTU21D;4243;49.296;11.348;2022-08-02T05:12:47;15.55;118.99
8412;HTU21D;4243;49.296;11.348;2022-08-02T05:15:15;15.68;118.99
8412;HTU21D;4243;49.296;11.348;2022-08-02T05:17:45;16.50;1.00
8412;HTU21D;4243;49.296;11.348;2022-08-02T05:17:46;15.83;118.99
8412;HTU21D;4243;49.296;11.348;2022-08-02T05:20:18;15.95;118.99
8412;HTU21D;4243;49.296;11.348;2022-08-02T05:22:46;16.08;118.99
8412;HTU21D;4243;49.296;11.348;2022-08-02T05:25:14;16.19;118.99
8412;HTU21D;4243;49.296;11.348;2022-08-02T05:27:41;16.30;118.99
8412;HTU21D;4243;49.296;11.348;2022-08-02T05:30:09;16.42;118.99
8412;HTU21D;4243;49.296;11.348;2022-08-02T05:32:48;17.10;1.00
8412;HTU21D;4243;49.296;11.348;2022-08-02T05:32:49;16.52;118.99
8412;HTU21D;4243;49.296;11.348;2022-08-02T05:35:23;16.65;118.99
8412;HTU21D;4243;49.296;11.348;2022-08-02T05:37:51;16.77;118.99
8412;HTU21D;4243;49.296;11.348;2022-08-02T05:40:19;17.50;1.00
8412;HTU21D;4243;49.296;11.348;2022-08-02T05:40:19;16.88;118.99
8412;HTU21D;4243;49.296;11.348;2022-08-02T05:42:53;17.04;118.99
8412;HTU21D;4243;49.296;11.348;2022-08-02T05:45:21;17.16;118.99
8412;HTU21D;4243;49.296;11.348;2022-08-02T05:47:48;17.31;118.99
8412;HTU21D;4243;49.296;11.348;2022-08-02T05:47:48;17.90;99.90
8412;HTU21D;4243;49.296;11.348;2022-08-02T05:50:15;18.10;99.90
8412;HTU21D;4243;49.296;11.348;2022-08-02T05:50:15;17.47;118.99
8412;HTU21D;4243;49.296;11.348;2022-08-02T05:53:20;17.67;118.99
8412;HTU21D;4243;49.296;11.348;2022-08-02T05:56:24;17.96;118.99
8412;HTU21D;4243;49.296;11.348;2022-08-02T06:02:06;18.38;118.99
8412;HTU21D;4243;49.296;11.348;2022-08-02T06:05:15;19.10;52.00
8412;HTU21D;4243;49.296;11.348;2022-08-02T06:05:16;18.63;118.99
8412;HTU21D;4243;49.296;11.348;2022-08-02T06:07:47;19.20;1.00
8412;HTU21D;4243;49.296;11.348;2022-08-02T06:07:48;18.80;118.99
8412;HTU21D;4243;49.296;11.348;2022-08-02T06:10:20;18.95;118.99
8412;HTU21D;4243;49.296;11.348;2022-08-02T06:12:49;19.40;1.00
8412;HTU21D;4243;49.296;11.348;2022-08-02T06:15:23;19.23;118.99
8412;HTU21D;4243;49.296;11.348;2022-08-02T06:17:51;19.38;118.99
8412;HTU21D;4243;49.296;11.348;2022-08-02T06:20:19;19.50;118.99
8412;HTU21D;4243;49.296;11.348;2022-08-02T06:22:47;19.60;118.99
8412;HTU21D;4243;49.296;11.348;2022-08-02T06:25:15;19.75;118.99
8412;HTU21D;4243;49.296;11.348;2022-08-02T06:28:05;19.90;99.90
8412;HTU21D;4243;49.296;11.348;2022-08-02T06:28:05;19.88;118.99
8412;HTU21D;4243;49.296;11.348;2022-08-02T06:30:38;20.03;118.99
8412;HTU21D;4243;49.296;11.348;2022-08-02T06:33:06;20.26;118.99
8412;HTU21D;4243;49.296;11.348;2022-08-02T06:35:44;20.42;118.99
8412;HTU21D;4243;49.296;11.348;2022-08-02T06:38:21;20.70;1.00
8412;HTU21D;4243;49.296;11.348;2022-08-02T06:38:23;20.63;118.99
8412;HTU21D;4243;49.296;11.348;2022-08-02T06:41:06;20.76;118.99
8412;HTU21D;4243;49.296;11.348;2022-08-02T06:43:49;20.83;118.99
8412;HTU21D;4243;49.296;11.348;2022-08-02T06:46:21;21.01;118.99
8412;HTU21D;4243;49.296;11.348;2022-08-02T06:49:08;21.18;118.99
8412;HTU21D;4243;49.296;11.348;2022-08-02T06:51:36;21.25;118.99
8412;HTU21D;4243;49.296;11.348;2022-08-02T06:54:03;20.90;1.00
8412;HTU21D;4243;49.296;11.348;2022-08-02T06:54:03;21.34;118.99
8412;HTU21D;4243;49.296;11.348;2022-08-02T06:56:30;21.46;118.99
8412;HTU21D;4243;49.296;11.348;2022-08-02T06:58:58;21.67;118.99
8412;HTU21D;4243;49.296;11.348;2022-08-02T07:01:31;21.70;1.00
8412;HTU21D;4243;49.296;11.348;2022-08-02T07:01:31;21.92;118.99
8412;HTU21D;4243;49.296;11.348;2022-08-02T07:04:05;22.10;118.99
8412;HTU21D;4243;49.296;11.348;2022-08-02T07:06:33;22.10;118.99
8412;HTU21D;4243;49.296;11.348;2022-08-02T07:08:59;22.00;99.90
8412;HTU21D;4243;49.296;11.348;2022-08-02T07:09:00;22.20;118.99
8412;HTU21D;4243;49.296;11.348;2022-08-02T07:11:47;22.43;118.99
8412;HTU21D;4243;49.296;11.348;2022-08-02T07:14:14;22.64;118.99
8412;HTU21D;4243;49.296;11.348;2022-08-02T07:16:41;22.81;118.99
8412;HTU21D;4243;49.296;11.348;2022-08-02T07:19:09;23.07;118.99
8412;HTU21D;4243;49.296;11.348;2022-08-02T07:21:36;23.29;118.99
8412;HTU21D;4243;49.296;11.348;2022-08-02T07:21:36;22.80;99.90
8412;HTU21D;4243;49.296;11.348;2022-08-02T07:24:24;23.40;118.99
8412;HTU21D;4243;49.296;11.348;2022-08-02T07:26:51;23.49;118.99
8412;HTU21D;4243;49.296;11.348;2022-08-02T07:29:38;23.74;118.99
8412;HTU21D;4243;49.296;11.348;2022-08-02T07:32:17;24.45;118.99
8412;HTU21D;4243;49.296;11.348;2022-08-02T07:34:46;25.30;118.99
8412;HTU21D;4243;49.296;11.348;2022-08-02T07:37:28;26.24;118.99
8412;HTU21D;4243;49.296;11.348;2022-08-02T07:40:17;27.20;118.99
8412;HTU21D;4243;49.296;11.348;2022-08-02T07:42:49;27.85;118.99
8412;HTU21D;4243;49.296;11.348;2022-08-02T07:42:49;24.80;1.00
8412;HTU21D;4243;49.296;11.348;2022-08-02T07:45:23;29.07;118.99
8412;HTU21D;4243;49.296;11.348;2022-08-02T07:47:51;29.64;118.99
8412;HTU21D;4243;49.296;11.348;2022-08-02T07:50:21;25.00;1.00
8412;HTU21D;4243;49.296;11.348;2022-08-02T07:50:21;30.02;118.99
8412;HTU21D;4243;49.296;11.348;2022-08-02T07:52:49;30.39;118.99
8412;HTU21D;4243;49.296;11.348;2022-08-02T07:55:23;30.13;118.99
8412;HTU21D;4243;49.296;11.348;2022-08-02T07:58:07;24.30;99.90
8412;HTU21D;4243;49.296;11.348;2022-08-02T07:58:08;28.98;118.99
8412;HTU21D;4243;49.296;11.348;2022-08-02T08:03:40;30.91;118.99
8412;HTU21D;4243;49.296;11.348;2022-08-02T08:06:07;31.45;118.99
8412;HTU21D;4243;49.296;11.348;2022-08-02T08:06:07;25.70;99.90
8412;HTU21D;4243;49.296;11.348;2022-08-02T08:08:35;31.66;118.99
8412;HTU21D;4243;49.296;11.348;2022-08-02T08:11:02;31.64;118.99
8412;HTU21D;4243;49.296;11.348;2022-08-02T08:13:33;32.50;118.99
8412;HTU21D;4243;49.296;11.348;2022-08-02T08:16:00;33.35;118.99
8412;HTU21D;4243;49.296;11.348;2022-08-02T08:18:28;33.79;118.99
8412;HTU21D;4243;49.296;11.348;2022-08-02T08:20:55;34.67;118.99
8412;HTU21D;4243;49.296;11.348;2022-08-02T08:20:55;27.20;1.00
8412;HTU21D;4243;49.296;11.348;2022-08-02T08:23:23;35.23;118.99
8412;HTU21D;4243;49.296;11.348;2022-08-02T08:25:50;34.98;118.99
8412;HTU21D;4243;49.296;11.348;2022-08-02T08:25:50;27.40;1.00
8412;HTU21D;4243;49.296;11.348;2022-08-02T08:28:17;35.39;118.99
8412;HTU21D;4243;49.296;11.348;2022-08-02T08:30:45;35.83;118.99
8412;HTU21D;4243;49.296;11.348;2022-08-02T08:33:13;37.00;118.99
8412;HTU21D;4243;49.296;11.348;2022-08-02T08:35:41;37.80;118.99
8412;HTU21D;4243;49.296;11.348;2022-08-02T08:35:41;28.10;1.00
8412;HTU21D;4243;49.296;11.348;2022-08-02T08:38:09;38.29;118.99
8412;HTU21D;4243;49.296;11.348;2022-08-02T08:40:36;37.55;118.99
8412;HTU21D;4243;49.296;11.348;2022-08-02T08:43:05;37.38;118.99
8412;HTU21D;4243;49.296;11.348;2022-08-02T08:45:32;37.30;118.99
8412;HTU21D;4243;49.296;11.348;2022-08-02T08:48:05;27.90;99.90
8412;HTU21D;4243;49.296;11.348;2022-08-02T08:48:09;37.45;118.99
8412;HTU21D;4243;49.296;11.348;2022-08-02T08:51:08;38.48;118.99
8412;HTU21D;4243;49.296;11.348;2022-08-02T08:53:43;29.10;99.90
8412;HTU21D;4243;49.296;11.348;2022-08-02T08:53:47;39.36;118.99
8412;HTU21D;4243;49.296;11.348;2022-08-02T08:56:20;38.97;118.99
8412;HTU21D;4243;49.296;11.348;2022-08-02T08:58:52;38.78;118.99
8412;HTU21D;4243;49.296;11.348;2022-08-02T09:01:24;39.51;118.99
8412;HTU21D;4243;49.296;11.348;2022-08-02T09:04:17;40.55;118.99
8412;HTU21D;4243;49.296;11.348;2022-08-02T09:06:49;41.26;118.99
8412;HTU21D;4243;49.296;11.348;2022-08-02T09:09:21;42.11;118.99
8412;HTU21D;4243;49.296;11.348;2022-08-02T09:11:53;30.90;1.00
8412;HTU21D;4243;49.296;11.348;2022-08-02T09:11:54;42.55;118.99
8412;HTU21D;4243;49.296;11.348;2022-08-02T09:14:30;43.20;118.99
8412;HTU21D;4243;49.296;11.348;2022-08-02T09:17:09;31.10;1.00
8412;HTU21D;4243;49.296;11.348;2022-08-02T09:17:10;43.87;118.99
8412;HTU21D;4243;49.296;11.348;2022-08-02T09:19:41;31.90;1.00
8412;HTU21D;4243;49.296;11.348;2022-08-02T09:19:42;44.47;118.99
8412;HTU21D;4243;49.296;11.348;2022-08-02T09:22:14;44.12;118.99
8412;HTU21D;4243;49.296;11.348;2022-08-02T09:24:49;43.07;118.99
8412;HTU21D;4243;49.296;11.348;2022-08-02T09:27:21;31.50;99.90
8412;HTU21D;4243;49.296;11.348;2022-08-02T09:27:22;42.65;118.99
8412;HTU21D;4243;49.296;11.348;2022-08-02T09:29:54;31.50;99.90
8412;HTU21D;4243;49.296;11.348;2022-08-02T09:29:54;41.89;118.99
8412;HTU21D;4243;49.296;11.348;2022-08-02T09:32:44;32.10;99.90
8412;HTU21D;4243;49.296;11.348;2022-08-02T09:32:45;42.08;118.99
8412;HTU21D;4243;49.296;11.348;2022-08-02T09:35:35;32.20;99.90
8412;HTU21D;4243;49.296;11.348;2022-08-02T09:35:37;42.53;118.99
8412;HTU21D;4243;49.296;11.348;2022-08-02T09:38:30;32.50;99.90
8412;HTU21D;4243;49.296;11.348;2022-08-02T09:38:31;42.74;118.99
8412;HTU21D;4243;49.296;11.348;2022-08-02T09:41:04;41.11;118.99
8412;HTU21D;4243;49.296;11.348;2022-08-02T09:43:41;30.90;96.00
8412;HTU21D;4243;49.296;11.348;2022-08-02T09:43:42;40.46;118.99
8412;HTU21D;4243;49.296;11.348;2022-08-02T09:46:38;39.08;118.99
8412;HTU21D;4243;49.296;11.348;2022-08-02T09:49:12;38.89;118.99
8412;HTU21D;4243;49.296;11.348;2022-08-02T09:51:55;39.70;118.99
8412;HTU21D;4243;49.296;11.348;2022-08-02T09:54:28;39.58;118.99
8412;HTU21D;4243;49.296;11.348;2022-08-02T09:57:01;40.09;118.99
8412;HTU21D;4243;49.296;11.348;2022-08-02T09:59:33;40.62;118.99
8412;HTU21D;4243;49.296;11.348;2022-08-02T10:02:09;42.14;118.99
8412;HTU21D;4243;49.296;11.348;2022-08-02T10:04:50;43.51;118.99
8412;HTU21D;4243;49.296;11.348;2022-08-02T10:07:22;43.99;118.99
8412;HTU21D;4243;49.296;11.348;2022-08-02T10:09:54;43.19;118.99
8412;HTU21D;4243;49.296;11.348;2022-08-02T10:12:25;41.30;118.99
8412;HTU21D;4243;49.296;11.348;2022-08-02T10:14:57;39.45;118.99
8412;HTU21D;4243;49.296;11.348;2022-08-02T10:17:29;29.20;1.00
8412;HTU21D;4243;49.296;11.348;2022-08-02T10:17:30;37.89;118.99
8412;HTU21D;4243;49.296;11.348;2022-08-02T10:20:00;28.20;1.00
8412;HTU21D;4243;49.296;11.348;2022-08-02T10:20:01;36.18;118.99
8412;HTU21D;4243;49.296;11.348;2022-08-02T10:22:34;34.63;118.99
8412;HTU21D;4243;49.296;11.348;2022-08-02T10:25:07;33.45;118.99
8412;HTU21D;4243;49.296;11.348;2022-08-02T10:27:38;26.80;1.00
8412;HTU21D;4243;49.296;11.348;2022-08-02T10:27:40;32.20;118.99
8412;HTU21D;4243;49.296;11.348;2022-08-02T10:30:40;31.44;118.99
8412;HTU21D;4243;49.296;11.348;2022-08-02T10:33:17;31.45;118.99
8412;HTU21D;4243;49.296;11.348;2022-08-02T10:35:50;27.20;1.00
8412;HTU21D;4243;49.296;11.348;2022-08-02T10:35:52;31.95;118.99
8412;HTU21D;4243;49.296;11.348;2022-08-02T10:38:35;26.90;1.00
8412;HTU21D;4243;49.296;11.348;2022-08-02T10:38:36;31.63;118.99
8412;HTU21D;4243;49.296;11.348;2022-08-02T10:41:09;31.14;118.99
8412;HTU21D;4243;49.296;11.348;2022-08-02T10:43:45;30.93;118.99
8412;HTU21D;4243;49.296;11.348;2022-08-02T10:46:31;31.04;118.99
8412;HTU21D;4243;49.296;11.348;2022-08-02T10:49:18;26.90;1.00
8412;HTU21D;4243;49.296;11.348;2022-08-02T10:49:20;30.71;118.99
8412;HTU21D;4243;49.296;11.348;2022-08-02T10:52:08;30.65;118.99
8412;HTU21D;4243;49.296;11.348;2022-08-02T10:52:08;26.80;1.00
8412;HTU21D;4243;49.296;11.348;2022-08-02T10:54:43;30.47;118.99
8412;HTU21D;4243;49.296;11.348;2022-08-02T10:57:29;30.31;118.99
8412;HTU21D;4243;49.296;11.348;2022-08-02T11:00:12;30.10;118.99
8412;HTU21D;4243;49.296;11.348;2022-08-02T11:02:54;30.96;118.99
8412;HTU21D;4243;49.296;11.348;2022-08-02T11:05:33;29.50;1.00
8412;HTU21D;4243;49.296;11.348;2022-08-02T11:05:33;33.89;118.99
8412;HTU21D;4243;49.296;11.348;2022-08-02T11:08:20;28.80;1.00
8412;HTU21D;4243;49.296;11.348;2022-08-02T11:08:21;34.20;118.99
8412;HTU21D;4243;49.296;11.348;2022-08-02T11:10:58;33.15;118.99
8412;HTU21D;4243;49.296;11.348;2022-08-02T11:14:03;27.80;1.00
8412;HTU21D;4243;49.296;11.348;2022-08-02T11:14:04;32.11;118.99
8412;HTU21D;4243;49.296;11.348;2022-08-02T11:19:22;31.48;118.99
8412;HTU21D;4243;49.296;11.348;2022-08-02T11:22:01;28.90;1.00
8412;HTU21D;4243;49.296;11.348;2022-08-02T11:22:03;33.79;118.99
8412;HTU21D;4243;49.296;11.348;2022-08-02T11:24:33;30.00;1.00
8412;HTU21D;4243;49.296;11.348;2022-08-02T11:24:34;35.60;118.99
8412;HTU21D;4243;49.296;11.348;2022-08-02T11:27:15;29.10;1.00
8412;HTU21D;4243;49.296;11.348;2022-08-02T11:27:17;34.59;118.99
8412;HTU21D;4243;49.296;11.348;2022-08-02T11:29:48;33.21;118.99
8412;HTU21D;4243;49.296;11.348;2022-08-02T11:34:57;27.60;1.00
8412;HTU21D;4243;49.296;11.348;2022-08-02T11:34:57;31.53;118.99
8412;HTU21D;4243;49.296;11.348;2022-08-02T11:37:39;31.15;118.99
8412;HTU21D;4243;49.296;11.348;2022-08-02T11:40:16;27.70;1.00
8412;HTU21D;4243;49.296;11.348;2022-08-02T11:40:17;31.18;118.99
8412;HTU21D;4243;49.296;11.348;2022-08-02T11:42:47;31.07;118.99
8412;HTU21D;4243;49.296;11.348;2022-08-02T11:45:25;30.87;118.99
8412;HTU21D;4243;49.296;11.348;2022-08-02T11:47:55;27.50;99.90
8412;HTU21D;4243;49.296;11.348;2022-08-02T11:47:55;30.76;118.99
8412;HTU21D;4243;49.296;11.348;2022-08-02T11:50:22;30.94;118.99
8412;HTU21D;4243;49.296;11.348;2022-08-02T11:50:22;27.40;99.90
8412;HTU21D;4243;49.296;11.348;2022-08-02T11:52:56;31.05;118.99
8412;HTU21D;4243;49.296;11.348;2022-08-02T11:55:28;27.40;99.90
8412;HTU21D;4243;49.296;11.348;2022-08-02T11:55:29;31.29;118.99
8412;HTU21D;4243;49.296;11.348;2022-08-02T11:57:58;27.10;99.90
8412;HTU21D;4243;49.296;11.348;2022-08-02T11:57:59;31.30;118.99
8412;HTU21D;4243;49.296;11.348;2022-08-02T12:00:31;31.90;118.99
8412;HTU21D;4243;49.296;11.348;2022-08-02T12:02:59;29.50;1.00
8412;HTU21D;4243;49.296;11.348;2022-08-02T12:02:59;33.91;118.99
8412;HTU21D;4243;49.296;11.348;2022-08-02T12:05:27;36.71;118.99
8412;HTU21D;4243;49.296;11.348;2022-08-02T12:08:13;31.90;1.00
8412;HTU21D;4243;49.296;11.348;2022-08-02T12:08:14;39.21;118.99
8412;HTU21D;4243;49.296;11.348;2022-08-02T12:10:49;41.01;118.99
8412;HTU21D;4243;49.296;11.348;2022-08-02T12:13:16;42.55;118.99
8412;HTU21D;4243;49.296;11.348;2022-08-02T12:15:45;42.01;118.99
8412;HTU21D;4243;49.296;11.348;2022-08-02T12:18:18;40.16;118.99
8412;HTU21D;4243;49.296;11.348;2022-08-02T12:21:21;32.30;99.90
8412;HTU21D;4243;49.296;11.348;2022-08-02T12:21:22;39.34;118.99
8412;HTU21D;4243;49.296;11.348;2022-08-02T12:23:52;39.62;118.99
8412;HTU21D;4243;49.296;11.348;2022-08-02T12:26:28;40.25;118.99
8412;HTU21D;4243;49.296;11.348;2022-08-02T12:28:56;33.40;99.90